createdAt,value
2022-11-16T00:04:33.517Z,40.55
2022-11-16T00:09:36.756Z,42.67
2022-11-16T00:14:39.129Z,41.35
2022-11-16T00:19:42.422Z,40.67
2022-11-16T00:24:45.472Z,37.70
2022-11-16T00:29:47.953Z,38.45
2022-11-16T00:34:50.116Z,38.30
2022-11-16T00:39:52.296Z,39.63
2022-11-16T00:44:54.503Z,43.00
2022-11-16T00:49:56.689Z,40.15
2022-11-16T00:54:58.896Z,37.83
2022-11-16T01:00:01.129Z,39.30
2022-11-16T01:05:03.495Z,41.30
2022-11-16T01:10:13.376Z,32.38
2022-11-16T01:15:16.109Z,37.38
2022-11-16T01:20:20.565Z,34.78
2022-11-16T01:25:22.904Z,32.88
2022-11-16T01:30:25.122Z,32.63
2022-11-16T01:35:27.645Z,35.83
2022-11-16T01:40:29.854Z,40.92
2022-11-16T01:45:38.770Z,31.52
2022-11-16T01:50:41.810Z,35.33
2022-11-16T01:55:47.114Z,39.17
2022-11-16T02:00:49.647Z,37.03
2022-11-16T02:06:23.036Z,35.35
2022-11-16T02:11:32.995Z,36.08
2022-11-16T02:16:40.855Z,36.72
2022-11-16T02:21:59.509Z,33.50
2022-11-16T02:27:20.320Z,39.03
2022-11-16T02:32:38.702Z,45.97
2022-11-16T02:37:48.213Z,48.58
2022-11-16T02:42:55.706Z,33.50
2022-11-16T02:48:03.994Z,35.22
2022-11-16T02:53:06.210Z,41.40
2022-11-16T02:58:13.163Z,41.20
2022-11-16T03:03:45.522Z,36.25
2022-11-16T03:08:56.002Z,35.00
2022-11-16T03:14:02.456Z,38.05
2022-11-16T03:19:11.190Z,40.88
2022-11-16T03:24:14.952Z,39.28
2022-11-16T03:29:41.832Z,34.80
2022-11-16T03:34:55.407Z,39.97
2022-11-16T03:40:01.588Z,34.13
2022-11-16T03:45:05.306Z,35.25
2022-11-16T03:50:08.713Z,43.10
2022-11-16T03:55:11.117Z,42.47
2022-11-16T04:00:13.621Z,37.60
2022-11-16T04:05:34.474Z,42.70
2022-11-16T04:10:54.911Z,37.50
2022-11-16T04:16:15.573Z,33.90
2022-11-16T04:21:51.172Z,31.02
2022-11-16T04:27:15.990Z,33.15
2022-11-16T04:32:36.939Z,29.75
2022-11-16T04:37:52.889Z,28.25
2022-11-16T04:42:57.150Z,30.42
2022-11-16T04:47:59.325Z,30.35
2022-11-16T04:53:01.913Z,28.27
2022-11-16T04:58:04.733Z,31.67
2022-11-16T05:03:06.952Z,33.58
2022-11-16T05:08:09.538Z,31.88
2022-11-16T05:13:11.764Z,22.88
2022-11-16T05:18:13.994Z,24.08
2022-11-16T05:23:36.127Z,22.58
2022-11-16T05:28:38.421Z,19.23
2022-11-16T05:33:40.788Z,25.88
2022-11-16T05:38:43.042Z,22.48
2022-11-16T05:43:47.601Z,22.77
2022-11-16T05:48:50.392Z,23.35
2022-11-16T05:53:52.734Z,21.88
2022-11-16T05:58:55.413Z,14.93
2022-11-16T06:04:03.550Z,15.18
2022-11-16T06:09:06.170Z,14.25
2022-11-16T06:14:08.605Z,28.70
2022-11-16T06:19:10.908Z,25.48
2022-11-16T06:24:13.151Z,30.40
2022-11-16T06:29:15.480Z,18.38
2022-11-16T06:34:17.905Z,21.23
2022-11-16T06:39:20.105Z,16.25
2022-11-16T06:44:22.344Z,21.30
2022-11-16T06:49:24.542Z,20.95
2022-11-16T06:54:26.763Z,21.00
2022-11-16T06:59:28.974Z,25.02
2022-11-16T07:04:33.178Z,19.02
2022-11-16T07:09:35.412Z,19.15
2022-11-16T07:14:38.360Z,21.00
2022-11-16T07:19:40.711Z,20.92
2022-11-16T07:24:42.949Z,17.98
2022-11-16T07:29:45.189Z,19.25
2022-11-16T07:34:47.412Z,17.60
2022-11-16T07:39:49.593Z,17.83
2022-11-16T07:44:51.766Z,18.20
2022-11-16T07:49:54.125Z,18.60
2022-11-16T07:54:56.486Z,18.98
2022-11-16T07:59:58.711Z,16.67
2022-11-16T08:05:00.948Z,19.13
2022-11-16T08:10:03.599Z,20.95
2022-11-16T08:15:06.229Z,18.55
2022-11-16T08:20:10.035Z,22.48
2022-11-16T08:25:12.802Z,22.85
2022-11-16T08:30:15.466Z,18.83
2022-11-16T08:35:18.562Z,18.45
2022-11-16T08:40:20.764Z,20.42
2022-11-16T08:45:23.632Z,21.80
2022-11-16T08:50:26.073Z,23.40
2022-11-16T08:55:28.282Z,24.95
2022-11-16T09:00:30.673Z,31.42
2022-11-16T09:05:32.952Z,24.85
2022-11-16T09:10:35.396Z,23.80
2022-11-16T09:15:37.679Z,26.08
2022-11-16T09:20:45.184Z,24.25
2022-11-16T09:25:48.990Z,22.17
2022-11-16T09:30:52.187Z,22.58
2022-11-16T09:35:54.664Z,25.42
2022-11-16T09:40:57.625Z,21.48
2022-11-16T09:46:26.253Z,22.08
2022-11-16T09:51:32.986Z,19.23
2022-11-16T09:56:40.576Z,25.42
2022-11-16T10:01:46.701Z,24.98
2022-11-16T10:07:27.447Z,26.33
2022-11-16T10:12:46.673Z,26.58
2022-11-16T10:18:04.800Z,24.83
2022-11-16T10:23:19.688Z,22.17
2022-11-16T10:28:57.103Z,20.27
2022-11-16T10:34:02.147Z,18.50
2022-11-16T10:39:13.672Z,18.63
2022-11-16T10:44:29.652Z,14.70
2022-11-16T10:50:00.904Z,19.05
2022-11-16T10:55:03.276Z,14.85
2022-11-16T11:00:11.164Z,14.75
2022-11-16T11:05:26.887Z,14.77
2022-11-16T11:10:42.538Z,11.10
2022-11-16T11:15:45.392Z,16.60
2022-11-16T11:20:51.508Z,19.17
2022-11-16T11:25:59.164Z,18.05
2022-11-16T11:31:06.944Z,10.98
2022-11-16T11:36:25.286Z,7.78
2022-11-16T11:41:34.169Z,8.77
2022-11-16T11:47:35.184Z,8.27
2022-11-16T11:52:17.847Z,8.52
2022-11-16T11:57:24.254Z,9.65
2022-11-16T12:03:03.846Z,8.20
2022-11-16T12:08:30.995Z,9.23
2022-11-16T12:14:03.568Z,5.65
2022-11-16T12:19:36.484Z,7.35
2022-11-16T12:24:57.290Z,6.47
2022-11-16T12:30:09.809Z,6.78
2022-11-16T12:35:29.906Z,5.80
2022-11-16T12:40:50.656Z,8.15
2022-11-16T12:46:06.953Z,8.30
2022-11-16T12:51:15.239Z,4.78
2022-11-16T12:56:26.370Z,7.25
2022-11-16T13:01:49.678Z,8.32
2022-11-16T13:07:22.845Z,10.23
2022-11-16T13:12:27.024Z,6.57
2022-11-16T13:17:33.772Z,7.82
2022-11-16T13:22:39.883Z,19.52
2022-11-16T13:27:53.449Z,14.93
2022-11-16T13:33:02.811Z,5.72
2022-11-16T13:43:11.731Z,6.65
2022-11-16T13:48:21.984Z,10.93
2022-11-16T13:58:58.669Z,11.63
2022-11-16T14:04:43.467Z,5.53
2022-11-16T14:09:52.104Z,5.95
2022-11-16T14:15:19.487Z,8.05
2022-11-16T14:20:49.059Z,10.02
2022-11-16T14:25:56.774Z,11.55
2022-11-16T14:31:15.634Z,8.70
2022-11-16T14:36:18.418Z,11.50
2022-11-16T14:41:24.202Z,11.27
2022-11-16T14:46:28.579Z,9.68
2022-11-16T14:51:34.686Z,4.85
2022-11-16T14:56:36.965Z,8.23
2022-11-16T15:01:40.751Z,6.30
2022-11-16T15:06:50.758Z,8.90
2022-11-16T15:12:11.830Z,17.15
2022-11-16T15:17:27.234Z,4.55
2022-11-16T15:22:40.076Z,14.50
2022-11-16T15:27:43.476Z,18.73
2022-11-16T15:32:48.313Z,26.45
2022-11-16T15:38:21.461Z,42.75
2022-11-16T15:43:33.633Z,116.97
2022-11-16T15:48:39.344Z,46.58
2022-11-16T15:53:49.474Z,36.33
2022-11-16T15:58:53.579Z,29.67
2022-11-16T16:04:07.183Z,29.70
2022-11-16T16:09:19.019Z,29.00
2022-11-16T16:14:27.021Z,26.58
2022-11-16T16:19:47.224Z,27.10
2022-11-16T16:24:49.541Z,29.17
2022-11-16T16:29:54.022Z,27.00
2022-11-16T16:35:01.736Z,31.27
2022-11-16T16:40:04.791Z,32.47
2022-11-16T16:45:25.020Z,30.45
2022-11-16T16:50:27.434Z,25.27
2022-11-16T16:55:32.958Z,31.05
2022-11-16T17:00:39.363Z,32.75
2022-11-16T17:05:41.684Z,30.70
2022-11-16T17:10:43.839Z,33.17
2022-11-16T17:15:46.340Z,29.17
2022-11-16T17:20:48.603Z,25.80
2022-11-16T17:25:50.941Z,35.20
2022-11-16T17:30:53.336Z,31.52
2022-11-16T17:35:58.212Z,51.72
2022-11-16T17:41:22.105Z,48.08
2022-11-16T17:46:26.134Z,40.78
2022-11-16T17:51:30.288Z,64.55
2022-11-16T17:56:32.712Z,54.10
2022-11-16T18:01:35.089Z,53.53
2022-11-16T18:06:38.200Z,50.55
2022-11-16T18:11:40.745Z,54.35
2022-11-16T18:16:43.867Z,65.85
2022-11-16T18:21:48.466Z,56.90
2022-11-16T18:26:50.706Z,66.88
2022-11-16T18:31:52.964Z,63.05
2022-11-16T18:36:55.884Z,65.60
2022-11-16T18:41:58.080Z,60.65
2022-11-16T18:47:00.355Z,50.97
2022-11-16T18:52:02.593Z,55.55
2022-11-16T18:57:04.882Z,63.38
2022-11-16T19:02:07.454Z,100.75
2022-11-16T19:07:09.931Z,88.70
2022-11-16T19:12:13.093Z,75.78
2022-11-16T19:17:16.478Z,81.72
2022-11-16T19:22:20.111Z,84.57
2022-11-16T19:27:22.433Z,80.30
2022-11-16T19:32:25.155Z,74.82
2022-11-16T19:37:27.532Z,69.18
2022-11-16T19:42:29.760Z,71.18
2022-11-16T19:47:31.989Z,77.95
2022-11-16T19:52:34.407Z,88.50
2022-11-16T19:57:36.661Z,95.20
2022-11-16T20:02:39.120Z,91.80
2022-11-16T20:07:41.325Z,72.25
2022-11-16T20:12:43.905Z,71.72
2022-11-16T20:17:46.146Z,83.82
2022-11-16T20:22:51.239Z,105.68
2022-11-16T20:27:53.493Z,96.30
2022-11-16T20:32:55.744Z,106.32
2022-11-16T20:37:58.054Z,108.43
2022-11-16T20:43:00.673Z,130.07
2022-11-16T20:48:03.107Z,113.15
2022-11-16T20:53:05.463Z,127.53
2022-11-16T20:58:07.743Z,132.07
2022-11-16T21:03:09.985Z,118.85
2022-11-16T21:08:13.045Z,129.77
2022-11-16T21:13:36.369Z,122.82
2022-11-16T21:18:39.958Z,122.15
2022-11-16T21:23:45.479Z,108.45
2022-11-16T21:28:47.943Z,121.60
2022-11-16T21:33:50.161Z,124.03
2022-11-16T21:38:53.036Z,132.18
2022-11-16T21:43:55.516Z,120.10
2022-11-16T21:48:58.486Z,111.35
2022-11-16T21:54:00.775Z,123.25
2022-11-16T21:59:02.977Z,135.32
2022-11-16T22:04:27.407Z,120.80
2022-11-16T22:09:29.752Z,100.22
2022-11-16T22:14:31.955Z,88.50
2022-11-16T22:19:34.113Z,85.20
2022-11-16T22:24:36.294Z,70.18
2022-11-16T22:29:38.619Z,67.03
2022-11-16T22:34:40.846Z,67.85
2022-11-16T22:39:43.067Z,52.88
2022-11-16T22:44:45.272Z,54.58
2022-11-16T22:49:47.889Z,50.13
2022-11-16T22:54:50.041Z,47.30
2022-11-16T22:59:52.368Z,57.40
2022-11-16T23:04:54.537Z,50.78
2022-11-16T23:09:56.695Z,52.47
2022-11-16T23:15:31.220Z,48.63
2022-11-16T23:20:53.591Z,47.15
2022-11-16T23:26:13.976Z,50.85
2022-11-16T23:31:16.195Z,46.65
2022-11-16T23:36:18.384Z,49.08
2022-11-16T23:41:39.132Z,45.13
2022-11-16T23:46:41.324Z,42.00
2022-11-16T23:51:43.609Z,48.03
2022-11-16T23:56:45.766Z,46.28
